Time;durP1;ratioP1;P1;durP2;ratioP2;P2;SDS_P1;SDS_P2;PMS_P1;PMS_P2;Temp;Humidity;BMP_temperature;BMP_pressure;BME280_temperature;BME280_humidity;BME280_pressure;Samples;Min_cycle;Max_cycle;Signal;HPM_P1;HPM_P2
2022/07/28 00:00:09;;;;;;;880.22;796.92;;;20.50;93.20;;;;;;5066014;28;20574;-83
2022/07/28 00:02:36;;;;;;;883.97;801.00;;;20.50;92.80;;;;;;5046069;28;20353;-83
2022/07/28 00:05:03;;;;;;;871.22;788.25;;;20.50;92.80;;;;;;5049005;28;20213;-83
2022/07/28 00:07:30;;;;;;;871.67;788.92;;;20.50;92.80;;;;;;5059524;28;20312;-83
2022/07/28 00:09:57;;;;;;;871.38;788.28;;;20.50;92.80;;;;;;5072973;28;20592;-83
2022/07/28 00:12:23;;;;;;;869.28;786.28;;;20.50;92.80;;;;;;5053735;28;20203;-82
2022/07/28 00:14:50;;;;;;;881.55;798.47;;;20.40;92.80;;;;;;5044263;28;20202;-82
2022/07/28 00:17:18;;;;;;;866.80;783.83;;;20.40;92.80;;;;;;5050841;28;20668;-82
2022/07/28 00:19:45;;;;;;;875.17;791.92;;;20.40;92.90;;;;;;5062151;28;20194;-83
2022/07/28 00:22:12;;;;;;;861.38;778.63;;;20.40;93.30;;;;;;5052916;28;20206;-81
2022/07/28 00:24:39;;;;;;;869.67;786.78;;;20.30;93.00;;;;;;5048638;28;20557;-81
2022/07/28 00:27:06;;;;;;;871.90;788.50;;;20.30;92.90;;;;;;5053720;28;20201;-85
2022/07/28 00:29:33;;;;;;;864.65;781.55;;;20.30;93.00;;;;;;5051834;28;20212;-83
2022/07/28 00:32:00;;;;;;;849.13;766.53;;;20.30;93.00;;;;;;5056355;28;20199;-82
2022/07/28 00:34:28;;;;;;;869.38;786.45;;;20.30;93.00;;;;;;5052448;28;20202;-82
2022/07/28 00:36:54;;;;;;;849.13;766.40;;;20.30;93.10;;;;;;5039622;28;20201;-82
2022/07/28 00:39:21;;;;;;;854.67;772.08;;;20.20;93.10;;;;;;5061435;28;20193;-82
2022/07/28 00:41:48;;;;;;;849.50;766.97;;;20.20;93.10;;;;;;5057177;28;20232;-83
2022/07/28 00:44:15;;;;;;;858.35;775.45;;;20.20;93.10;;;;;;5045102;28;20200;-83
2022/07/28 00:46:42;;;;;;;835.90;753.63;;;20.20;93.20;;;;;;5041929;28;20562;-84
2022/07/28 00:49:09;;;;;;;858.72;775.75;;;20.20;93.20;;;;;;5040562;28;20232;-83
2022/07/28 00:51:40;;;;;;;855.53;772.25;;;20.20;93.30;;;;;;5044656;28;20201;-83
2022/07/28 00:54:07;;;;;;;856.85;773.50;;;20.10;93.30;;;;;;5036292;28;20203;-84
2022/07/28 00:56:34;;;;;;;864.17;780.50;;;20.10;93.20;;;;;;5033468;28;20198;-83
2022/07/28 00:59:02;;;;;;;866.85;782.88;;;20.10;93.30;;;;;;5049677;28;20678;-83
2022/07/28 01:01:28;;;;;;;861.25;777.67;;;20.10;93.30;;;;;;5043751;28;20218;-82
2022/07/28 01:03:57;;;;;;;876.55;792.67;;;20.10;93.40;;;;;;5048582;28;20199;-84
2022/07/28 01:06:51;;;;;;;864.80;781.00;;;20.10;93.40;;;;;;5047527;28;20328;-84
2022/07/28 01:09:47;;;;;;;870.33;786.15;;;20.10;93.50;;;;;;5043546;28;20219;-84
2022/07/28 01:12:22;;;;;;;851.40;767.70;;;20.00;93.50;;;;;;5051474;28;20222;-84
2022/07/28 01:14:53;;;;;;;867.72;783.67;;;20.00;93.50;;;;;;5051192;28;20662;-83
2022/07/28 01:17:29;;;;;;;854.33;770.75;;;20.00;93.60;;;;;;5039727;28;20199;-83
2022/07/28 01:20:06;;;;;;;864.15;780.25;;;20.00;93.60;;;;;;5066409;28;20197;-83
2022/07/28 01:22:40;;;;;;;866.55;782.53;;;20.00;93.60;;;;;;5039956;28;20224;-84
2022/07/28 01:25:17;;;;;;;865.17;781.03;;;19.90;93.60;;;;;;5048125;28;20192;-84
2022/07/28 01:27:53;;;;;;;853.40;769.78;;;19.90;93.70;;;;;;5033250;28;20195;-84
2022/07/28 01:30:32;;;;;;;871.45;787.17;;;19.90;93.70;;;;;;5042712;28;20216;-84
2022/07/28 01:33:02;;;;;;;851.90;768.50;;;19.90;93.80;;;;;;5054536;28;20201;-87
2022/07/28 01:35:32;;;;;;;860.25;776.75;;;19.90;93.80;;;;;;5041163;28;20708;-86
2022/07/28 01:38:03;;;;;;;854.40;770.75;;;19.80;93.80;;;;;;5046866;28;20201;-85
2022/07/28 01:40:35;;;;;;;847.78;764.53;;;19.80;93.80;;;;;;5038795;28;20648;-84
2022/07/28 01:43:09;;;;;;;847.92;764.70;;;19.80;93.90;;;;;;5051129;28;20203;-84
2022/07/28 01:45:39;;;;;;;849.47;765.88;;;19.80;93.90;;;;;;5057066;28;20193;-83
2022/07/28 01:48:08;;;;;;;837.40;754.40;;;19.80;94.00;;;;;;5049693;28;20202;-83
2022/07/28 01:50:36;;;;;;;848.53;765.30;;;19.80;94.00;;;;;;5072258;28;20301;-83
2022/07/28 01:53:04;;;;;;;853.78;770.08;;;19.80;94.00;;;;;;5061335;28;20224;-83
2022/07/28 01:55:31;;;;;;;848.83;765.35;;;19.70;94.00;;;;;;5041731;28;20204;-84
2022/07/28 01:57:59;;;;;;;853.25;769.97;;;19.70;94.10;;;;;;5054702;28;20205;-83
2022/07/28 02:00:28;;;;;;;853.05;769.75;;;19.70;94.20;;;;;;5048384;28;20200;-84
2022/07/28 02:02:57;;;;;;;821.35;738.60;;;19.70;94.20;;;;;;5046484;28;20221;-83
2022/07/28 02:05:26;;;;;;;851.08;767.72;;;19.70;94.20;;;;;;5050318;28;20200;-84
2022/07/28 02:07:55;;;;;;;846.72;763.58;;;19.60;94.20;;;;;;5055548;28;20200;-84
2022/07/28 02:10:24;;;;;;;823.22;740.88;;;19.70;94.30;;;;;;5060947;28;20298;-83
2022/07/28 02:12:52;;;;;;;840.65;758.72;;;19.60;94.40;;;;;;5054382;28;20287;-88
2022/07/28 02:15:20;;;;;;;861.60;777.83;;;19.70;94.40;;;;;;5055195;28;20263;-87
2022/07/28 02:17:49;;;;;;;849.70;766.38;;;19.60;94.40;;;;;;5051916;28;20207;-87
2022/07/28 02:20:19;;;;;;;860.95;777.15;;;19.60;94.50;;;;;;5041528;28;20202;-87
2022/07/28 02:22:47;;;;;;;838.40;755.10;;;19.60;94.60;;;;;;5035314;28;20251;-90
2022/07/28 02:25:14;;;;;;;841.22;761.25;;;19.50;94.60;;;;;;5054962;28;20639;-90
2022/07/28 02:27:44;;;;;;;863.42;782.90;;;19.60;94.70;;;;;;5034226;28;20200;-89
2022/07/28 02:30:15;;;;;;;835.80;755.95;;;19.50;94.70;;;;;;5050308;28;20218;-90
2022/07/28 02:32:49;;;;;;;836.20;755.95;;;19.50;94.70;;;;;;5046896;28;20211;-86
2022/07/28 02:35:26;;;;;;;838.20;757.90;;;19.50;94.80;;;;;;5044012;28;20203;-85
2022/07/28 02:37:57;;;;;;;843.38;762.60;;;19.50;94.90;;;;;;5047503;28;20208;-88
2022/07/28 02:40:28;;;;;;;857.08;775.83;;;19.50;94.90;;;;;;5040693;28;20194;-88
2022/07/28 02:42:57;;;;;;;845.78;764.35;;;19.40;94.90;;;;;;5042437;28;20200;-87
2022/07/28 02:45:26;;;;;;;847.78;765.85;;;19.40;94.90;;;;;;5046574;28;20207;-86
2022/07/28 02:47:58;;;;;;;844.55;762.28;;;19.40;95.00;;;;;;5053392;28;20221;-86
2022/07/28 02:50:28;;;;;;;829.92;748.22;;;19.40;95.00;;;;;;5040796;28;20630;-85
2022/07/28 02:52:58;;;;;;;839.75;757.30;;;19.40;95.10;;;;;;5049470;28;20578;-87
2022/07/28 02:55:26;;;;;;;840.15;757.20;;;19.40;95.10;;;;;;5058987;28;20202;-89
2022/07/28 02:57:53;;;;;;;833.35;750.28;;;19.40;95.20;;;;;;5056381;28;20206;-87
2022/07/28 03:00:21;;;;;;;838.47;755.08;;;19.40;95.20;;;;;;5047507;28;20195;-87
2022/07/28 03:02:48;;;;;;;825.13;742.22;;;19.40;95.30;;;;;;5036470;28;20687;-87
2022/07/28 03:05:15;;;;;;;813.53;731.22;;;19.40;95.30;;;;;;5047071;28;20214;-87
2022/07/28 03:07:44;;;;;;;833.50;750.80;;;19.30;95.30;;;;;;5055711;28;20203;-88
2022/07/28 03:10:18;;;;;;;826.38;743.38;;;19.30;95.40;;;;;;5050796;28;20211;-87
2022/07/28 03:12:45;;;;;;;824.42;741.45;;;19.30;95.40;;;;;;5035427;28;20195;-88
2022/07/28 03:15:12;;;;;;;835.13;752.13;;;19.30;95.50;;;;;;5049210;28;20187;-88
2022/07/28 03:17:38;;;;;;;823.80;742.92;;;19.20;95.50;;;;;;5033589;28;20192;-87
2022/07/28 03:20:06;;;;;;;811.95;732.00;;;19.20;95.50;;;;;;5060605;28;20198;-87
2022/07/28 03:22:34;;;;;;;833.00;752.33;;;19.20;95.60;;;;;;5057527;28;20215;-89
2022/07/28 03:25:05;;;;;;;825.42;745.00;;;19.20;95.60;;;;;;5048005;28;20194;-89
2022/07/28 03:27:36;;;;;;;814.58;734.33;;;19.20;95.70;;;;;;5046869;28;20203;-89
2022/07/28 03:30:06;;;;;;;820.28;740.00;;;19.20;95.70;;;;;;5045858;28;20566;-89
2022/07/28 03:32:36;;;;;;;817.97;738.05;;;19.20;95.80;;;;;;5034397;28;20199;-89
2022/07/28 03:35:03;;;;;;;814.88;734.58;;;19.10;95.80;;;;;;5044706;28;20187;-89
2022/07/28 03:37:37;;;;;;;821.88;741.15;;;19.10;95.80;;;;;;5036674;28;20207;-88
2022/07/28 03:40:09;;;;;;;816.83;736.47;;;19.10;95.90;;;;;;5057789;28;20200;-89
2022/07/28 03:42:37;;;;;;;819.40;738.72;;;19.10;95.90;;;;;;5048555;28;20192;-88
2022/07/28 03:45:06;;;;;;;813.78;733.42;;;19.10;96.00;;;;;;5048859;28;20207;-86
2022/07/28 03:47:32;;;;;;;830.60;748.75;;;19.10;96.00;;;;;;5042319;28;21838;-87
2022/07/28 03:49:59;;;;;;;830.17;748.10;;;19.10;96.10;;;;;;5038807;28;20223;-88
2022/07/28 03:52:26;;;;;;;833.05;750.47;;;19.10;96.10;;;;;;5034597;28;20806;-86
2022/07/28 03:54:53;;;;;;;819.92;737.22;;;19.10;96.20;;;;;;5050562;28;20206;-88
2022/07/28 03:57:21;;;;;;;833.85;750.67;;;19.00;96.10;;;;;;5049386;28;20552;-87
2022/07/28 03:59:48;;;;;;;812.38;729.58;;;19.00;96.20;;;;;;5053474;28;20190;-87
2022/07/28 04:02:14;;;;;;;817.17;734.70;;;19.00;96.20;;;;;;5047713;28;20211;-85
2022/07/28 04:04:41;;;;;;;818.78;737.38;;;19.00;96.20;;;;;;5031186;28;20219;-86
2022/07/28 04:07:08;;;;;;;822.67;743.00;;;18.90;96.20;;;;;;5055027;28;20199;-84
2022/07/28 04:09:34;;;;;;;838.95;756.17;;;18.90;96.30;;;;;;5039856;28;20203;-84
2022/07/28 04:12:01;;;;;;;834.17;752.22;;;18.90;96.30;;;;;;5045752;28;20194;-84
2022/07/28 04:14:29;;;;;;;823.17;743.47;;;18.90;96.30;;;;;;5049760;28;20195;-85
2022/07/28 04:16:56;;;;;;;813.72;734.55;;;18.90;96.30;;;;;;5051701;28;20200;-85
2022/07/28 04:19:23;;;;;;;814.20;733.05;;;18.90;96.40;;;;;;5054587;28;20194;-85
2022/07/28 04:21:49;;;;;;;823.10;740.50;;;18.90;96.40;;;;;;5061557;28;20191;-84
2022/07/28 04:24:16;;;;;;;816.60;733.90;;;18.90;96.40;;;;;;5047112;28;20561;-85
2022/07/28 04:26:43;;;;;;;817.58;735.17;;;18.90;96.50;;;;;;5058458;28;20205;-80
2022/07/28 04:29:10;;;;;;;809.13;726.33;;;18.80;96.40;;;;;;5045098;28;20565;-85
2022/07/28 04:31:38;;;;;;;815.55;735.40;;;18.80;96.50;;;;;;5045807;28;20218;-82
2022/07/28 04:34:04;;;;;;;820.25;739.08;;;18.80;96.60;;;;;;5049364;28;20907;-83
2022/07/28 04:36:31;;;;;;;825.92;742.72;;;18.80;96.60;;;;;;5041342;28;20199;-85
2022/07/28 04:38:58;;;;;;;792.75;710.58;;;18.80;96.60;;;;;;5037459;28;20195;-84
2022/07/28 04:41:26;;;;;;;802.25;719.88;;;18.80;96.70;;;;;;5056688;28;20650;-85
2022/07/28 04:43:52;;;;;;;792.70;710.55;;;18.80;96.70;;;;;;5053949;28;20206;-84
2022/07/28 04:46:19;;;;;;;805.63;723.50;;;18.70;96.60;;;;;;5047169;28;20642;-83
2022/07/28 04:48:47;;;;;;;796.20;713.90;;;18.80;96.70;;;;;;5045056;28;20206;-86
2022/07/28 04:51:14;;;;;;;803.25;720.67;;;18.70;96.70;;;;;;5045033;28;20226;-85
2022/07/28 04:53:41;;;;;;;810.53;727.97;;;18.70;96.80;;;;;;5043920;28;20195;-84
2022/07/28 04:56:08;;;;;;;808.45;725.95;;;18.70;96.80;;;;;;5039537;28;20191;-84
2022/07/28 04:58:35;;;;;;;826.72;743.67;;;18.70;96.80;;;;;;5046797;28;20206;-86
2022/07/28 05:01:01;;;;;;;791.70;709.40;;;18.70;96.80;;;;;;5043962;28;20197;-83
2022/07/28 05:03:28;;;;;;;804.42;723.30;;;18.70;96.90;;;;;;5052890;28;20219;-84
2022/07/28 05:05:56;;;;;;;795.72;713.63;;;18.70;96.90;;;;;;5047740;28;20207;-84
2022/07/28 05:08:24;;;;;;;811.10;728.70;;;18.70;96.90;;;;;;5043392;28;20615;-82
2022/07/28 05:10:51;;;;;;;810.63;727.75;;;18.70;96.90;;;;;;5065272;28;20223;-85
2022/07/28 05:13:17;;;;;;;803.70;721.53;;;18.70;96.90;;;;;;5036911;28;20199;-85
2022/07/28 05:15:44;;;;;;;805.83;723.80;;;18.70;96.90;;;;;;5058467;28;20199;-83
2022/07/28 05:18:11;;;;;;;805.80;723.38;;;18.70;97.30;;;;;;5047778;28;20198;-86
2022/07/28 05:20:37;;;;;;;797.60;715.35;;;18.80;97.00;;;;;;5049671;28;20561;-85
2022/07/28 05:23:07;;;;;;;779.50;697.80;;;18.70;96.90;;;;;;5045429;28;20195;-85
2022/07/28 05:25:33;;;;;;;799.97;718.95;;;18.80;97.00;;;;;;5050632;28;20201;-84
2022/07/28 05:28:00;;;;;;;805.45;729.63;;;18.70;96.90;;;;;;5040398;28;20203;-81
2022/07/28 05:30:28;;;;;;;790.90;714.92;;;18.80;96.90;;;;;;5046640;28;20227;-79
2022/07/28 05:32:58;;;;;;;794.03;717.75;;;18.80;96.90;;;;;;5050183;28;20191;-81
2022/07/28 05:35:25;;;;;;;789.25;712.08;;;18.80;96.90;;;;;;5057581;28;20194;-88
2022/07/28 05:37:51;;;;;;;805.10;726.42;;;18.80;96.80;;;;;;5048562;28;20204;-86
2022/07/28 05:40:20;;;;;;;808.60;729.90;;;18.80;96.90;;;;;;5047252;28;20190;-85
2022/07/28 05:42:47;;;;;;;810.72;730.58;;;18.80;96.80;;;;;;5039450;28;20200;-84
2022/07/28 05:45:14;;;;;;;812.90;732.55;;;18.90;96.80;;;;;;5058518;28;20202;-85
2022/07/28 05:47:44;;;;;;;809.67;729.30;;;19.00;96.60;;;;;;5048137;28;20196;-81
2022/07/28 05:50:11;;;;;;;829.05;747.60;;;19.20;96.30;;;;;;5032116;28;20210;-83
2022/07/28 05:52:38;;;;;;;827.95;745.67;;;19.40;95.80;;;;;;5034181;28;20198;-83
2022/07/28 05:55:06;;;;;;;821.30;738.78;;;19.50;95.40;;;;;;5040664;28;20202;-87
2022/07/28 05:57:35;;;;;;;833.13;749.92;;;19.50;95.10;;;;;;5051476;28;20231;-89
2022/07/28 06:00:02;;;;;;;842.80;759.38;;;19.50;94.90;;;;;;5053630;28;20645;-85
2022/07/28 06:02:28;;;;;;;823.22;740.45;;;19.50;94.90;;;;;;5047075;28;20227;-86
2022/07/28 06:04:56;;;;;;;831.08;748.10;;;19.50;95.00;;;;;;5048477;28;20206;-92
2022/07/28 06:07:23;;;;;;;831.42;748.75;;;19.50;95.10;;;;;;5068176;28;20198;-83
2022/07/28 06:09:50;;;;;;;835.10;752.20;;;19.50;95.10;;;;;;5049635;28;20203;-82
2022/07/28 06:12:16;;;;;;;825.40;742.67;;;19.60;94.80;;;;;;5048391;28;20222;-87
2022/07/28 06:14:44;;;;;;;841.63;758.65;;;19.80;94.70;;;;;;5057399;28;20198;-86
2022/07/28 06:17:13;;;;;;;862.22;778.10;;;20.00;94.40;;;;;;5048429;28;20192;-85
2022/07/28 06:19:40;;;;;;;853.22;769.75;;;20.10;94.00;;;;;;5040429;28;20212;-85
2022/07/28 06:22:07;;;;;;;849.30;766.20;;;20.30;93.70;;;;;;5039330;28;20215;-85
2022/07/28 06:24:34;;;;;;;879.35;795.28;;;20.40;93.30;;;;;;5041046;28;20918;-86
2022/07/28 06:27:01;;;;;;;881.72;797.80;;;20.50;93.10;;;;;;5045898;28;20292;-82
2022/07/28 06:29:28;;;;;;;880.00;795.92;;;20.70;92.80;;;;;;5053425;28;20202;-81
2022/07/28 06:31:56;;;;;;;890.38;806.28;;;20.70;92.50;;;;;;5037991;28;21565;-81
2022/07/28 06:34:23;;;;;;;895.17;810.92;;;20.90;92.30;;;;;;5035108;28;20234;-83
2022/07/28 06:36:50;;;;;;;898.83;814.38;;;20.90;92.00;;;;;;5049018;28;20198;-81
2022/07/28 06:39:17;;;;;;;908.25;823.55;;;21.00;91.90;;;;;;5043222;28;20212;-82
2022/07/28 06:41:43;;;;;;;888.60;804.40;;;21.00;91.70;;;;;;5051358;28;20203;-82
2022/07/28 06:44:11;;;;;;;894.25;810.17;;;21.00;91.60;;;;;;5049509;28;20216;-81
2022/07/28 06:46:37;;;;;;;906.97;822.40;;;21.10;91.50;;;;;;5038680;28;20204;-82
2022/07/28 06:49:06;;;;;;;896.55;812.22;;;21.20;91.20;;;;;;5045564;28;20660;-79
2022/07/28 06:51:32;;;;;;;913.45;828.30;;;21.30;91.00;;;;;;5054609;28;20322;-82
2022/07/28 06:53:59;;;;;;;927.15;841.28;;;21.40;90.90;;;;;;5055249;28;20580;-80
2022/07/28 06:56:26;;;;;;;922.35;836.92;;;21.40;90.70;;;;;;5056765;28;20198;-82
2022/07/28 06:58:53;;;;;;;941.38;855.38;;;21.50;90.50;;;;;;5046971;28;20203;-81
2022/07/28 07:01:19;;;;;;;926.40;841.30;;;21.60;90.30;;;;;;5041325;28;22076;-82
2022/07/28 07:03:46;;;;;;;931.53;846.30;;;21.70;90.20;;;;;;5040908;28;20194;-81
2022/07/28 07:06:14;;;;;;;932.95;847.33;;;21.80;89.90;;;;;;5038470;28;20681;-84
2022/07/28 07:08:43;;;;;;;949.85;863.85;;;21.90;89.50;;;;;;5033617;28;20204;-80
2022/07/28 07:11:10;;;;;;;957.85;871.80;;;22.00;89.20;;;;;;5041476;28;20235;-80
2022/07/28 07:13:37;;;;;;;949.72;863.67;;;22.00;88.90;;;;;;5030453;28;20562;-82
2022/07/28 07:16:04;;;;;;;951.83;865.90;;;22.10;88.70;;;;;;5053435;28;20198;-82
2022/07/28 07:18:31;;;;;;;960.58;874.00;;;22.20;88.20;;;;;;5039509;28;20203;-80
2022/07/28 07:20:58;;;;;;;965.13;878.28;;;22.30;87.30;;;;;;5048470;28;20195;-81
2022/07/28 07:23:26;;;;;;;976.90;889.90;;;22.40;87.10;;;;;;5037626;28;20203;-81
2022/07/28 07:25:53;;;;;;;969.45;882.75;;;22.50;86.90;;;;;;5053862;28;20196;-80
2022/07/28 07:28:19;;;;;;;961.25;874.47;;;22.60;86.60;;;;;;5039468;28;20226;-83
2022/07/28 07:30:47;;;;;;;980.13;892.45;;;22.60;86.10;;;;;;5049423;28;20306;-82
2022/07/28 07:33:14;;;;;;;989.95;902.85;;;22.80;85.10;;;;;;5049536;28;20205;-83
2022/07/28 07:35:40;;;;;;;982.83;895.75;;;22.80;84.90;;;;;;5042690;28;20199;-81
2022/07/28 07:38:07;;;;;;;971.53;885.05;;;22.80;85.00;;;;;;5043031;28;20195;-81
2022/07/28 07:40:35;;;;;;;986.75;899.78;;;22.70;85.10;;;;;;5057306;28;20669;-82
2022/07/28 07:43:02;;;;;;;992.05;904.58;;;22.60;85.30;;;;;;5035520;28;20203;-83
2022/07/28 07:45:28;;;;;;;992.80;905.05;;;22.60;85.40;;;;;;5036567;28;20222;-83
2022/07/28 07:47:55;;;;;;;992.10;904.65;;;22.60;85.50;;;;;;5051718;28;20788;-80
2022/07/28 07:50:22;;;;;;;986.03;899.03;;;22.60;84.90;;;;;;5055742;28;20195;-82
2022/07/28 07:52:49;;;;;;;992.35;905.20;;;22.70;84.50;;;;;;5048327;28;20212;-81
2022/07/28 07:55:16;;;;;;;989.20;902.22;;;22.70;84.00;;;;;;5057959;28;20190;-84
2022/07/28 07:57:45;;;;;;;969.28;882.72;;;22.80;83.50;;;;;;5052209;28;20200;-83
2022/07/28 08:00:12;;;;;;;988.85;901.53;;;23.00;84.00;;;;;;5053506;28;20202;-84
2022/07/28 08:02:40;;;;;;;985.67;898.53;;;23.00;83.00;;;;;;5052476;28;20215;-84
2022/07/28 08:05:08;;;;;;;1000.90;913.35;;;23.10;83.20;;;;;;5054974;28;20400;-87
2022/07/28 08:07:35;;;;;;;1001.63;913.67;;;23.20;82.50;;;;;;5064875;28;20399;-85
2022/07/28 08:10:02;;;;;;;1017.22;929.13;;;23.30;82.00;;;;;;5034391;28;20651;-85
2022/07/28 08:12:29;;;;;;;1000.03;912.38;;;23.30;82.20;;;;;;5034371;28;20331;-83
2022/07/28 08:14:57;;;;;;;1018.47;930.03;;;23.40;82.30;;;;;;5049195;28;20757;-85
2022/07/28 08:17:24;;;;;;;999.70;912.20;;;23.40;81.70;;;;;;5060247;28;20198;-84
2022/07/28 08:19:51;;;;;;;1017.78;929.55;;;23.50;80.90;;;;;;5043560;28;20203;-85
2022/07/28 08:22:18;;;;;;;1009.70;921.95;;;23.50;80.60;;;;;;5051281;28;20568;-84
2022/07/28 08:24:44;;;;;;;1003.42;916.28;;;23.50;80.60;;;;;;5041152;28;20200;-87
2022/07/28 08:27:11;;;;;;;1009.78;921.78;;;23.50;81.00;;;;;;5036087;28;20195;-88
2022/07/28 08:29:38;;;;;;;1010.80;923.00;;;23.40;80.80;;;;;;5051457;28;20203;-84
2022/07/28 08:32:07;;;;;;;1008.60;920.55;;;23.30;81.40;;;;;;5056198;28;20219;-84
2022/07/28 08:34:34;;;;;;;1003.85;916.10;;;23.20;81.20;;;;;;5042587;28;20195;-88
2022/07/28 08:37:03;;;;;;;983.22;895.80;;;23.10;81.80;;;;;;5044035;28;20217;-92
2022/07/28 08:39:30;;;;;;;993.40;905.97;;;22.90;82.20;;;;;;5067014;28;20199;-88
2022/07/28 08:42:02;;;;;;;1002.20;914.80;;;22.90;81.70;;;;;;5053658;28;20191;-85
2022/07/28 08:44:37;;;;;;;991.10;904.38;;;22.90;82.50;;;;;;5039008;28;20191;-86
2022/07/28 08:47:08;;;;;;;989.17;902.58;;;23.00;82.30;;;;;;5052668;28;20205;-85
2022/07/28 08:49:38;;;;;;;987.85;901.28;;;23.10;81.50;;;;;;5047684;28;20199;-83
2022/07/28 08:52:06;;;;;;;1008.80;922.08;;;23.20;81.10;;;;;;5044250;28;20215;-89
2022/07/28 08:54:34;;;;;;;1004.28;916.97;;;23.30;80.70;;;;;;5040729;28;20225;-85
2022/07/28 08:57:01;;;;;;;1017.83;929.97;;;23.40;80.10;;;;;;5045966;28;20221;-83
2022/07/28 08:59:29;;;;;;;1019.72;931.72;;;23.40;79.90;;;;;;5065516;28;20551;-87
2022/07/28 09:01:56;;;;;;;1025.15;936.58;;;23.50;80.10;;;;;;5045327;28;20211;-87
2022/07/28 09:04:25;;;;;;;1017.58;929.53;;;23.50;79.70;;;;;;5045326;28;20198;-87
2022/07/28 09:06:53;;;;;;;1010.78;923.25;;;23.50;79.70;;;;;;5058302;28;20194;-86
2022/07/28 09:09:21;;;;;;;1029.13;940.42;;;23.50;79.10;;;;;;5047995;28;20668;-85
2022/07/28 09:11:47;;;;;;;1023.53;935.22;;;23.60;79.70;;;;;;5053419;28;20604;-87
2022/07/28 09:14:14;;;;;;;1017.90;929.65;;;23.60;78.40;;;;;;5038190;28;20204;-86
2022/07/28 09:16:41;;;;;;;1031.82;943.55;;;23.50;79.10;;;;;;5036463;28;20302;-85
2022/07/28 09:19:08;;;;;;;1035.20;946.72;;;23.50;79.30;;;;;;5040533;28;20562;-86
2022/07/28 09:21:36;;;;;;;1024.77;936.60;;;23.60;79.30;;;;;;5047529;28;20207;-86
2022/07/28 09:24:03;;;;;;;1023.30;935.23;;;23.60;78.30;;;;;;5044037;28;20821;-85
2022/07/28 09:26:30;;;;;;;1020.00;932.05;;;23.60;79.40;;;;;;5044543;28;20453;-85
2022/07/28 09:29:00;;;;;;;1021.55;933.47;;;23.50;79.00;;;;;;5049868;28;20196;-89
2022/07/28 09:31:29;;;;;;;1013.10;925.30;;;23.60;78.90;;;;;;5034420;28;20235;-88
2022/07/28 09:34:00;;;;;;;1039.05;950.38;;;23.60;78.80;;;;;;5041013;28;20693;-85
2022/07/28 09:36:27;;;;;;;1015.00;928.03;;;23.50;78.70;;;;;;5039955;28;20536;-90
2022/07/28 09:38:57;;;;;;;1015.05;927.55;;;23.50;78.50;;;;;;5052266;28;20448;-88
2022/07/28 09:41:24;;;;;;;1006.05;919.25;;;23.50;78.10;;;;;;5052587;28;20581;-86
2022/07/28 09:43:52;;;;;;;1012.87;925.73;;;23.50;78.70;;;;;;5044028;28;20195;-84
2022/07/28 09:46:21;;;;;;;1016.10;928.90;;;23.50;78.70;;;;;;5042144;28;20606;-88
2022/07/28 09:48:55;;;;;;;1008.35;920.95;;;23.40;79.10;;;;;;5047358;28;20199;-85
2022/07/28 09:51:24;;;;;;;998.70;911.85;;;23.40;78.80;;;;;;5048395;28;20612;-86
2022/07/28 09:53:51;;;;;;;1005.08;918.08;;;23.40;79.90;;;;;;5042637;28;20203;-84
2022/07/28 09:56:22;;;;;;;1004.60;917.50;;;23.40;80.20;;;;;;5031542;28;20195;-90
2022/07/28 09:58:56;;;;;;;1014.33;926.83;;;23.40;79.80;;;;;;5034746;28;20649;-87
2022/07/28 10:01:24;;;;;;;1008.15;920.95;;;23.40;79.90;;;;;;5050302;28;20216;-87
2022/07/28 10:03:53;;;;;;;1009.53;922.05;;;23.40;78.80;;;;;;5041859;28;20192;-87
2022/07/28 10:06:26;;;;;;;1005.17;918.00;;;23.30;79.00;;;;;;5057791;28;20230;-85
2022/07/28 10:08:54;;;;;;;1004.53;917.38;;;23.30;79.30;;;;;;5047533;28;20196;-85
2022/07/28 10:11:26;;;;;;;1003.70;916.47;;;23.30;80.10;;;;;;5032042;28;20203;-85
2022/07/28 10:13:59;;;;;;;991.60;904.67;;;23.30;79.40;;;;;;5040356;28;20305;-86
2022/07/28 10:16:27;;;;;;;1011.50;924.05;;;23.30;79.60;;;;;;5040916;28;20469;-86
2022/07/28 10:18:54;;;;;;;998.22;911.22;;;23.30;79.10;;;;;;5042493;28;20559;-85
2022/07/28 10:21:24;;;;;;;998.95;911.85;;;23.30;79.90;;;;;;5048037;28;20644;-85
2022/07/28 10:23:52;;;;;;;1007.67;920.50;;;23.30;79.50;;;;;;5050694;28;20205;-93
2022/07/28 10:26:25;;;;;;;998.20;911.35;;;23.20;80.60;;;;;;5050574;28;20201;-87
2022/07/28 10:28:54;;;;;;;1001.15;914.42;;;23.30;79.40;;;;;;5032626;28;20200;-84
2022/07/28 10:31:35;;;;;;;1005.53;919.45;;;23.20;79.90;;;;;;5051102;28;20206;-89
2022/07/28 10:34:04;;;;;;;991.08;905.72;;;23.20;79.90;;;;;;5044139;28;20631;-86
2022/07/28 10:36:33;;;;;;;993.00;908.45;;;23.20;80.20;;;;;;5051361;28;20202;-92
2022/07/28 10:39:06;;;;;;;996.55;912.65;;;23.20;79.80;;;;;;5038748;28;20200;-87
2022/07/28 10:41:40;;;;;;;988.65;906.38;;;23.20;80.20;;;;;;5031963;28;20195;-88
2022/07/28 10:44:11;;;;;;;1001.70;918.75;;;23.20;79.10;;;;;;5032866;28;20203;-88
2022/07/28 10:46:38;;;;;;;999.72;915.65;;;23.20;79.30;;;;;;5037972;28;20205;-90
2022/07/28 10:49:05;;;;;;;998.25;914.38;;;23.20;79.40;;;;;;5048528;28;20203;-87
2022/07/28 10:51:32;;;;;;;1000.38;916.13;;;23.20;79.90;;;;;;5052321;28;20202;-86
2022/07/28 10:54:07;;;;;;;997.03;913.00;;;23.20;79.40;;;;;;5043550;28;20205;-88
2022/07/28 10:56:48;;;;;;;1007.47;920.70;;;23.10;79.10;;;;;;5041607;28;20209;-86
2022/07/28 10:59:39;;;;;;;979.10;895.28;;;23.10;79.50;;;;;;5051486;28;20226;-88
2022/07/28 11:02:06;;;;;;;999.25;914.97;;;23.10;79.60;;;;;;5040674;28;20215;-85
2022/07/28 11:04:54;;;;;;;1006.30;922.60;;;23.10;79.40;;;;;;5046544;28;20207;-87
2022/07/28 11:07:21;;;;;;;990.63;907.65;;;23.10;79.60;;;;;;5051396;28;20222;-88
2022/07/28 11:09:48;;;;;;;982.58;899.25;;;23.10;79.20;;;;;;5051094;28;20921;-87
2022/07/28 11:12:36;;;;;;;987.65;903.28;;;23.10;79.60;;;;;;5045878;28;20219;-84
2022/07/28 11:15:31;;;;;;;995.28;910.58;;;23.00;79.10;;;;;;5047874;28;20206;-86
2022/07/28 11:18:02;;;;;;;979.50;895.60;;;23.00;79.40;;;;;;5054231;28;20211;-92
2022/07/28 11:21:06;;;;;;;986.92;902.85;;;23.00;79.60;;;;;;5052329;28;20562;-86
2022/07/28 11:23:46;;;;;;;983.05;899.38;;;23.00;80.00;;;;;;4990901;28;20272;-90
2022/07/28 11:26:34;;;;;;;986.40;903.13;;;23.00;79.80;;;;;;4992824;28;20211;-86
2022/07/28 11:29:18;;;;;;;990.88;906.70;;;23.00;80.10;;;;;;5023399;28;20207;-85
2022/07/28 11:31:59;;;;;;;973.20;887.67;;;23.00;79.60;;;;;;5057504;28;20658;-84
2022/07/28 11:34:26;;;;;;;978.88;892.90;;;23.00;80.30;;;;;;5050427;28;20198;-91
2022/07/28 11:37:01;;;;;;;989.10;903.83;;;23.00;80.60;;;;;;5055162;28;20188;-84
2022/07/28 11:39:29;;;;;;;998.88;913.00;;;23.00;80.60;;;;;;5054349;28;20197;-88
2022/07/28 11:41:56;;;;;;;981.53;894.95;;;23.00;78.70;;;;;;5047859;28;20275;-86
2022/07/28 11:44:29;;;;;;;994.95;908.35;;;23.00;80.10;;;;;;5042112;28;20199;-84
2022/07/28 11:47:16;;;;;;;978.55;892.63;;;23.00;79.70;;;;;;5049732;28;20207;-83
2022/07/28 11:49:43;;;;;;;990.08;904.05;;;23.00;79.10;;;;;;5049621;28;20342;-85
2022/07/28 11:52:16;;;;;;;984.65;898.90;;;23.00;79.80;;;;;;5052985;28;20222;-92
2022/07/28 11:54:47;;;;;;;987.50;902.35;;;23.00;80.00;;;;;;5051743;28;20279;-85
2022/07/28 11:57:15;;;;;;;985.28;900.88;;;22.90;79.30;;;;;;5061130;28;20211;-87
2022/07/28 11:59:46;;;;;;;974.88;891.22;;;22.90;79.20;;;;;;5055615;28;20341;-88
2022/07/28 12:02:18;;;;;;;987.47;903.65;;;23.00;80.00;;;;;;5068305;28;20225;-94
2022/07/28 12:04:45;;;;;;;975.88;892.78;;;22.90;80.00;;;;;;5054616;28;20217;-84
2022/07/28 12:07:12;;;;;;;985.88;902.40;;;23.00;80.30;;;;;;5058630;28;20198;-85
2022/07/28 12:09:39;;;;;;;993.75;909.92;;;22.90;79.50;;;;;;5064693;28;20203;-90
2022/07/28 12:12:07;;;;;;;977.88;894.33;;;22.90;80.00;;;;;;5043958;28;20669;-91
2022/07/28 12:14:38;;;;;;;989.85;906.05;;;22.90;80.00;;;;;;5054060;28;20815;-85